createdAt,value
2022-12-11T00:01:32.003Z,15.15
2022-12-11T00:03:58.710Z,15.52
2022-12-11T00:06:25.369Z,14.55
2022-12-11T00:08:54.270Z,15.25
2022-12-11T00:11:22.440Z,14.38
2022-12-11T00:13:49.157Z,13.93
2022-12-11T00:16:16.055Z,13.48
2022-12-11T00:18:42.797Z,14.32
2022-12-11T00:21:13.692Z,13.68
2022-12-11T00:23:40.446Z,14.75
2022-12-11T00:26:09.463Z,14.98
2022-12-11T00:28:36.634Z,15.70
2022-12-11T00:31:07.566Z,14.63
2022-12-11T00:33:34.454Z,13.55
2022-12-11T00:36:01.462Z,15.68
2022-12-11T00:38:28.544Z,14.20
2022-12-11T00:40:59.369Z,13.23
2022-12-11T00:43:26.078Z,14.55
2022-12-11T00:45:52.866Z,14.73
2022-12-11T00:48:19.599Z,15.52
2022-12-11T00:50:46.669Z,15.32
2022-12-11T00:53:13.316Z,16.33
2022-12-11T00:55:41.564Z,15.95
2022-12-11T00:58:09.224Z,16.83
2022-12-11T01:00:36.011Z,16.42
2022-12-11T01:03:03.284Z,15.80
2022-12-11T01:05:30.133Z,15.88
2022-12-11T01:07:57.159Z,16.30
2022-12-11T01:10:23.988Z,16.98
2022-12-11T01:12:57.625Z,16.88
2022-12-11T01:15:27.370Z,14.10
2022-12-11T01:17:54.290Z,14.70
2022-12-11T01:20:22.556Z,15.32
2022-12-11T01:22:52.676Z,17.88
2022-12-11T01:25:19.893Z,17.23
2022-12-11T01:27:46.710Z,16.35
2022-12-11T01:30:14.274Z,14.95
2022-12-11T01:32:40.994Z,16.02
2022-12-11T01:35:08.653Z,16.63
2022-12-11T01:37:35.600Z,16.42
2022-12-11T01:40:03.695Z,16.52
2022-12-11T01:42:30.509Z,14.93
2022-12-11T01:45:26.720Z,15.50
2022-12-11T01:48:32.925Z,13.77
2022-12-11T01:51:04.784Z,14.13
2022-12-11T01:53:34.283Z,14.35
2022-12-11T01:56:02.529Z,14.02
2022-12-11T01:58:33.698Z,15.77
2022-12-11T02:01:02.463Z,14.50
2022-12-11T02:03:29.297Z,14.52
2022-12-11T02:06:02.921Z,15.27
2022-12-11T02:08:29.930Z,14.75
2022-12-11T02:11:05.738Z,14.95
2022-12-11T02:13:44.683Z,14.68
2022-12-11T02:16:39.502Z,15.63
2022-12-11T02:19:21.719Z,14.18
2022-12-11T02:21:53.077Z,13.63
2022-12-11T02:24:40.761Z,14.48
2022-12-11T02:27:32.532Z,14.98
2022-12-11T02:30:04.911Z,15.60
2022-12-11T02:32:37.741Z,16.83
2022-12-11T02:35:13.785Z,15.27
2022-12-11T02:37:44.982Z,15.82
2022-12-11T02:40:15.010Z,14.68
2022-12-11T02:42:44.287Z,15.07
2022-12-11T02:45:12.859Z,13.63
2022-12-11T02:47:40.389Z,14.70
2022-12-11T02:50:11.523Z,13.80
2022-12-11T02:52:41.591Z,13.52
2022-12-11T02:55:11.081Z,12.93
2022-12-11T02:58:04.254Z,14.68
2022-12-11T03:00:31.729Z,15.20
2022-12-11T03:02:58.594Z,13.43
2022-12-11T03:05:27.173Z,15.98
2022-12-11T03:07:54.158Z,14.75
2022-12-11T03:10:21.203Z,15.25
2022-12-11T03:12:53.909Z,16.10
2022-12-11T03:15:23.332Z,15.25
2022-12-11T03:18:10.947Z,15.10
2022-12-11T03:20:40.407Z,15.30
2022-12-11T03:23:28.189Z,15.90
2022-12-11T03:25:59.575Z,14.98
2022-12-11T03:28:32.154Z,15.75
2022-12-11T03:31:04.220Z,15.38
2022-12-11T03:33:44.651Z,16.40
2022-12-11T03:36:17.450Z,16.50
2022-12-11T03:39:07.842Z,15.20
2022-12-11T03:41:37.333Z,16.05
2022-12-11T03:44:04.706Z,15.77
2022-12-11T03:46:34.584Z,15.68
2022-12-11T03:49:06.615Z,15.20
2022-12-11T03:51:35.750Z,17.00
2022-12-11T03:54:03.163Z,16.48
2022-12-11T03:56:33.032Z,16.30
2022-12-11T03:58:59.802Z,16.30
2022-12-11T04:01:26.595Z,15.77
2022-12-11T04:03:53.370Z,14.63
2022-12-11T04:06:20.185Z,14.18
2022-12-11T04:08:46.920Z,15.68
2022-12-11T04:11:32.112Z,16.58
2022-12-11T04:14:28.132Z,15.48
2022-12-11T04:16:55.360Z,14.57
2022-12-11T04:19:42.022Z,14.98
2022-12-11T04:22:14.113Z,14.93
2022-12-11T04:24:40.919Z,14.65
2022-12-11T04:27:07.834Z,15.77
2022-12-11T04:29:34.530Z,15.98
2022-12-11T04:32:01.236Z,15.85
2022-12-11T04:34:27.955Z,16.23
2022-12-11T04:36:54.624Z,15.48
2022-12-11T04:39:21.343Z,15.65
2022-12-11T04:41:48.063Z,15.40
2022-12-11T04:44:14.728Z,15.82
2022-12-11T04:46:41.432Z,16.92
2022-12-11T04:49:08.378Z,15.48
2022-12-11T04:51:35.015Z,15.55
2022-12-11T04:54:01.752Z,15.45
2022-12-11T04:56:28.438Z,15.43
2022-12-11T04:58:55.168Z,15.90
2022-12-11T05:01:22.954Z,16.35
2022-12-11T05:03:50.174Z,16.73
2022-12-11T05:06:17.108Z,15.85
2022-12-11T05:08:45.330Z,16.88
2022-12-11T05:11:15.318Z,15.73
2022-12-11T05:13:43.025Z,16.20
2022-12-11T05:16:12.194Z,15.32
2022-12-11T05:18:39.362Z,15.88
2022-12-11T05:21:09.305Z,17.23
2022-12-11T05:23:36.703Z,16.23
2022-12-11T05:26:11.094Z,14.27
2022-12-11T05:28:39.381Z,15.52
2022-12-11T05:31:08.876Z,15.27
2022-12-11T05:33:35.683Z,15.25
2022-12-11T05:36:02.399Z,15.02
2022-12-11T05:38:29.445Z,14.68
2022-12-11T05:41:01.628Z,14.45
2022-12-11T05:43:29.978Z,14.27
2022-12-11T05:45:57.213Z,14.10
2022-12-11T05:48:23.964Z,13.73
2022-12-11T05:50:59.108Z,13.68
2022-12-11T05:53:26.424Z,13.97
2022-12-11T05:55:53.290Z,13.52
2022-12-11T05:58:21.081Z,15.13
2022-12-11T06:00:48.393Z,14.35
2022-12-11T06:03:15.222Z,14.15
2022-12-11T06:05:42.834Z,15.45
2022-12-11T06:08:10.004Z,15.23
2022-12-11T06:10:36.768Z,14.40
2022-12-11T06:13:03.745Z,16.20
2022-12-11T06:15:30.442Z,14.93
2022-12-11T06:17:57.109Z,14.60
2022-12-11T06:20:24.703Z,15.32
2022-12-11T06:22:51.430Z,15.27
2022-12-11T06:25:18.227Z,15.95
2022-12-11T06:27:44.993Z,15.88
2022-12-11T06:30:12.236Z,15.68
2022-12-11T06:32:38.903Z,15.23
2022-12-11T06:35:06.242Z,15.35
2022-12-11T06:37:34.276Z,13.90
2022-12-11T06:40:00.958Z,15.38
2022-12-11T06:42:29.896Z,14.50
2022-12-11T06:44:57.557Z,12.43
2022-12-11T06:47:24.236Z,13.52
2022-12-11T06:49:50.907Z,13.07
2022-12-11T06:52:18.654Z,13.52
2022-12-11T06:54:45.561Z,12.15
2022-12-11T06:57:12.300Z,13.85
2022-12-11T06:59:39.170Z,12.10
2022-12-11T07:02:05.994Z,12.38
2022-12-11T07:04:33.210Z,12.10
2022-12-11T07:06:59.951Z,11.02
2022-12-11T07:09:26.666Z,12.60
2022-12-11T07:11:53.745Z,12.52
2022-12-11T07:14:20.804Z,11.90
2022-12-11T07:16:47.622Z,12.02
2022-12-11T07:19:14.358Z,10.68
2022-12-11T07:21:41.060Z,11.63
2022-12-11T07:24:08.560Z,12.02
2022-12-11T07:26:35.239Z,12.68
2022-12-11T07:29:01.915Z,13.52
2022-12-11T07:31:30.099Z,12.60
2022-12-11T07:33:59.700Z,12.50
2022-12-11T07:36:27.133Z,13.73
2022-12-11T07:38:54.281Z,16.70
2022-12-11T07:41:21.753Z,15.40
2022-12-11T07:43:48.723Z,15.70
2022-12-11T07:46:18.786Z,22.17
2022-12-11T07:48:47.121Z,17.20
2022-12-11T07:51:17.498Z,16.35
2022-12-11T07:53:49.490Z,11.98
2022-12-11T07:56:17.678Z,10.98
2022-12-11T07:58:44.767Z,14.35
2022-12-11T08:01:20.613Z,15.40
2022-12-11T08:03:48.000Z,11.00
2022-12-11T08:06:15.446Z,12.13
2022-12-11T08:08:42.344Z,12.18
2022-12-11T08:11:12.213Z,12.68
2022-12-11T08:13:39.163Z,10.60
2022-12-11T08:16:07.717Z,11.15
2022-12-11T08:18:36.510Z,12.13
2022-12-11T08:21:23.797Z,10.95
2022-12-11T08:23:51.396Z,10.20
2022-12-11T08:26:22.281Z,10.82
2022-12-11T08:28:49.067Z,11.05
2022-12-11T08:31:16.828Z,12.45
2022-12-11T08:33:44.348Z,12.55
2022-12-11T08:36:13.771Z,16.58
2022-12-11T08:38:41.028Z,18.70
2022-12-11T08:41:11.292Z,13.85
2022-12-11T08:43:38.519Z,21.25
2022-12-11T08:46:05.796Z,16.65
2022-12-11T08:48:33.413Z,13.60
2022-12-11T08:51:01.581Z,14.50
2022-12-11T08:53:30.048Z,12.93
2022-12-11T08:56:04.098Z,12.52
2022-12-11T08:58:30.776Z,12.70
2022-12-11T09:00:57.847Z,13.35
2022-12-11T09:03:25.095Z,11.55
2022-12-11T09:05:51.894Z,16.98
2022-12-11T09:08:18.702Z,12.50
2022-12-11T09:10:45.402Z,13.68
2022-12-11T09:13:12.077Z,14.90
2022-12-11T09:15:41.443Z,18.13
2022-12-11T09:18:08.716Z,17.10
2022-12-11T09:20:35.423Z,15.55
2022-12-11T09:23:02.471Z,14.48
2022-12-11T09:25:29.320Z,13.07
2022-12-11T09:27:56.069Z,14.88
2022-12-11T09:30:22.898Z,12.98
2022-12-11T09:32:49.685Z,15.63
2022-12-11T09:35:16.485Z,14.02
2022-12-11T09:37:43.190Z,12.35
2022-12-11T09:40:12.155Z,12.55
2022-12-11T09:42:54.319Z,11.75
2022-12-11T09:45:21.132Z,11.88
2022-12-11T09:47:52.578Z,12.25
2022-12-11T09:50:21.390Z,12.82
2022-12-11T09:53:33.948Z,13.50
2022-12-11T09:56:06.257Z,14.15
2022-12-11T09:58:45.071Z,14.75
2022-12-11T10:01:25.549Z,15.90
2022-12-11T10:04:16.679Z,21.70
2022-12-11T10:07:01.104Z,18.92
2022-12-11T10:09:52.667Z,14.75
2022-12-11T10:12:33.516Z,13.05
2022-12-11T10:15:09.187Z,13.07
2022-12-11T10:17:38.398Z,12.90
2022-12-11T10:20:26.931Z,13.52
2022-12-11T10:22:56.048Z,14.15
2022-12-11T10:25:29.960Z,17.17
2022-12-11T10:27:57.571Z,12.00
2022-12-11T10:30:37.347Z,13.88
2022-12-11T10:33:35.798Z,11.95
2022-12-11T10:36:02.495Z,12.20
2022-12-11T10:38:41.179Z,12.10
2022-12-11T10:41:21.164Z,11.57
2022-12-11T10:43:50.435Z,11.57
2022-12-11T10:46:20.182Z,11.52
2022-12-11T10:48:53.479Z,12.77
2022-12-11T10:51:24.286Z,13.52
2022-12-11T10:53:58.152Z,12.65
2022-12-11T10:59:00.083Z,12.43
2022-12-11T11:01:32.065Z,17.30
2022-12-11T11:04:19.040Z,17.35
2022-12-11T11:06:45.776Z,18.10
2022-12-11T11:09:35.227Z,13.60
2022-12-11T11:12:07.658Z,12.25
2022-12-11T11:14:34.902Z,11.15
2022-12-11T11:17:01.728Z,11.93
2022-12-11T11:19:34.777Z,10.68
2022-12-11T11:22:12.067Z,10.15
2022-12-11T11:24:42.285Z,10.75
2022-12-11T11:27:35.624Z,10.32
2022-12-11T11:30:17.220Z,10.50
2022-12-11T11:32:44.074Z,10.82
2022-12-11T11:35:11.517Z,10.65
2022-12-11T11:37:40.873Z,9.43
2022-12-11T11:40:22.257Z,9.50
2022-12-11T11:43:07.508Z,10.00
2022-12-11T11:45:50.520Z,9.70
2022-12-11T11:48:55.620Z,9.82
2022-12-11T11:51:56.926Z,9.52
2022-12-11T11:55:00.837Z,10.90
2022-12-11T11:57:32.981Z,10.18
2022-12-11T12:00:17.396Z,9.73
2022-12-11T12:02:46.986Z,10.25
2022-12-11T12:05:13.994Z,9.63
2022-12-11T12:07:51.465Z,8.90
2022-12-11T12:10:39.913Z,9.35
2022-12-11T12:13:48.709Z,8.32
2022-12-11T12:17:03.211Z,7.72
2022-12-11T12:19:51.694Z,7.82
2022-12-11T12:22:42.866Z,8.13
2022-12-11T12:25:18.667Z,6.93
2022-12-11T12:28:03.781Z,6.70
2022-12-11T12:30:40.206Z,7.43
2022-12-11T12:33:33.224Z,8.20
2022-12-11T12:36:23.545Z,7.30
2022-12-11T12:38:55.716Z,7.70
2022-12-11T12:41:52.637Z,6.28
2022-12-11T12:44:23.348Z,6.55
2022-12-11T12:47:05.773Z,7.55
2022-12-11T12:49:35.601Z,7.38
2022-12-11T12:52:05.158Z,8.40
2022-12-11T12:54:33.304Z,7.93
2022-12-11T12:57:03.146Z,6.95
2022-12-11T12:59:29.993Z,6.93
2022-12-11T13:02:01.007Z,6.80
2022-12-11T13:04:55.111Z,7.15
2022-12-11T13:07:29.752Z,7.00
2022-12-11T13:10:26.381Z,7.03
2022-12-11T13:12:53.150Z,7.82
2022-12-11T13:15:53.546Z,7.55
2022-12-11T13:18:31.247Z,7.70
2022-12-11T13:20:58.103Z,7.63
2022-12-11T13:23:35.148Z,7.43
2022-12-11T13:26:03.904Z,7.80
2022-12-11T13:28:48.031Z,7.95
2022-12-11T13:31:14.721Z,7.38
2022-12-11T13:33:50.876Z,8.07
2022-12-11T13:39:19.673Z,6.90
2022-12-11T13:41:51.596Z,8.52
2022-12-11T13:44:30.962Z,6.82
2022-12-11T13:47:00.250Z,7.18
2022-12-11T13:49:31.190Z,10.18
2022-12-11T13:51:59.551Z,7.20
2022-12-11T13:54:29.487Z,8.07
2022-12-11T13:57:06.635Z,8.95
2022-12-11T13:59:41.231Z,7.80
2022-12-11T14:02:28.510Z,8.48
2022-12-11T14:05:02.038Z,8.68
2022-12-11T14:07:32.859Z,8.20
2022-12-11T14:10:05.619Z,8.15
2022-12-11T14:12:32.890Z,8.30
2022-12-11T14:15:02.087Z,7.72
2022-12-11T14:17:31.820Z,8.02
2022-12-11T14:20:02.166Z,7.80
2022-12-11T14:22:30.181Z,8.43
2022-12-11T14:25:00.492Z,8.18
2022-12-11T14:27:28.036Z,9.20
2022-12-11T14:29:55.310Z,9.05
2022-12-11T14:32:35.113Z,7.95
2022-12-11T14:35:06.271Z,8.63
2022-12-11T14:37:35.782Z,7.78
2022-12-11T14:40:15.390Z,8.70
2022-12-11T14:42:57.050Z,10.80
2022-12-11T14:45:46.649Z,6.95
2022-12-11T14:48:29.078Z,7.70
2022-12-11T14:50:59.695Z,8.55
2022-12-11T14:53:32.854Z,9.10
2022-12-11T14:56:04.282Z,9.23
2022-12-11T14:58:33.891Z,8.98
2022-12-11T15:01:21.598Z,8.32
2022-12-11T15:03:48.422Z,9.02
2022-12-11T15:06:33.055Z,8.50
2022-12-11T15:09:21.670Z,8.10
2022-12-11T15:11:50.138Z,8.70
2022-12-11T15:14:19.708Z,8.10
2022-12-11T15:16:47.949Z,10.30
2022-12-11T15:19:25.635Z,10.85
2022-12-11T15:21:53.225Z,10.18
2022-12-11T15:24:40.792Z,9.05
2022-12-11T15:27:33.003Z,10.82
2022-12-11T15:29:59.745Z,10.05
2022-12-11T15:32:26.789Z,8.40
2022-12-11T15:35:00.824Z,8.98
2022-12-11T15:37:38.468Z,8.70
2022-12-11T15:40:05.986Z,8.77
2022-12-11T15:42:36.482Z,11.00
2022-12-11T15:45:06.779Z,12.30
2022-12-11T15:47:33.624Z,13.57
2022-12-11T15:50:21.898Z,9.95
2022-12-11T15:52:49.919Z,8.80
2022-12-11T15:55:17.135Z,9.07
2022-12-11T15:57:49.459Z,9.00
2022-12-11T16:00:18.787Z,8.13
2022-12-11T16:02:46.630Z,8.60
2022-12-11T16:05:14.484Z,8.88
2022-12-11T16:07:41.789Z,9.88
2022-12-11T16:10:14.818Z,9.15
2022-12-11T16:12:42.804Z,9.32
2022-12-11T16:15:11.116Z,10.77
2022-12-11T16:17:38.262Z,9.90
2022-12-11T16:20:05.825Z,9.52
2022-12-11T16:22:32.570Z,10.00
2022-12-11T16:24:59.317Z,7.80
2022-12-11T16:27:26.365Z,9.52
2022-12-11T16:29:53.071Z,8.57
2022-12-11T16:32:20.020Z,8.43
2022-12-11T16:34:47.042Z,15.45
2022-12-11T16:37:14.151Z,9.90
2022-12-11T16:39:42.515Z,10.70
2022-12-11T16:42:09.237Z,10.52
2022-12-11T16:44:40.918Z,11.50
2022-12-11T16:47:10.628Z,10.18
2022-12-11T16:49:37.302Z,11.10
2022-12-11T16:52:04.152Z,10.93
2022-12-11T16:54:30.846Z,9.75
2022-12-11T16:56:57.587Z,12.05
2022-12-11T16:59:24.357Z,10.05
2022-12-11T17:01:51.143Z,13.77
2022-12-11T17:04:18.202Z,13.00
2022-12-11T17:06:46.241Z,9.80
2022-12-11T17:09:13.034Z,9.75
2022-12-11T17:11:39.729Z,8.90
2022-12-11T17:14:06.587Z,15.98
2022-12-11T17:16:34.066Z,9.32
2022-12-11T17:19:00.811Z,8.63
2022-12-11T17:21:27.561Z,9.18
2022-12-11T17:23:54.276Z,8.88
2022-12-11T17:26:21.115Z,9.35
2022-12-11T17:28:47.930Z,8.30
2022-12-11T17:31:19.173Z,8.30
2022-12-11T17:33:46.576Z,7.95
2022-12-11T17:36:19.337Z,8.02
2022-12-11T17:38:46.365Z,9.45
2022-12-11T17:41:20.050Z,9.30
2022-12-11T17:43:53.532Z,9.18
2022-12-11T17:46:20.776Z,9.10
2022-12-11T17:48:48.384Z,8.63
2022-12-11T17:51:23.888Z,8.70
2022-12-11T17:53:51.665Z,8.93
2022-12-11T17:56:19.891Z,9.40
2022-12-11T17:58:46.694Z,9.00
2022-12-11T18:01:13.661Z,7.57
2022-12-11T18:03:41.038Z,8.48
2022-12-11T18:06:11.840Z,8.25
2022-12-11T18:08:39.667Z,8.90
2022-12-11T18:11:18.895Z,8.38
2022-12-11T18:13:46.496Z,8.93
2022-12-11T18:16:17.249Z,9.98
2022-12-11T18:18:46.233Z,8.70
2022-12-11T18:21:17.846Z,7.93
2022-12-11T18:23:44.709Z,8.75
2022-12-11T18:26:14.332Z,9.30
2022-12-11T18:28:42.272Z,8.45
2022-12-11T18:31:09.949Z,9.10
2022-12-11T18:33:38.423Z,8.77
2022-12-11T18:36:06.697Z,9.02
2022-12-11T18:38:34.091Z,9.70
2022-12-11T18:41:05.087Z,9.43
2022-12-11T18:43:31.779Z,9.30
2022-12-11T18:45:58.516Z,9.05
2022-12-11T18:48:25.335Z,9.23
2022-12-11T18:50:52.301Z,9.90
2022-12-11T18:53:19.601Z,11.38
2022-12-11T18:55:48.196Z,17.67
2022-12-11T18:58:18.709Z,18.65
2022-12-11T19:00:45.929Z,19.50
2022-12-11T19:03:14.106Z,13.70
2022-12-11T19:05:43.910Z,14.02
2022-12-11T19:08:13.723Z,13.32
2022-12-11T19:10:42.673Z,12.90
2022-12-11T19:13:09.562Z,11.73
2022-12-11T19:15:43.741Z,11.07
2022-12-11T19:18:11.083Z,12.07
2022-12-11T19:20:57.651Z,12.57
2022-12-11T19:23:29.936Z,11.63
2022-12-11T19:25:56.625Z,11.48
2022-12-11T19:28:23.349Z,11.30
2022-12-11T19:30:50.164Z,17.45
2022-12-11T19:33:17.137Z,17.85
2022-12-11T19:35:44.023Z,13.02
2022-12-11T19:38:10.942Z,13.82
2022-12-11T19:40:44.881Z,11.25
2022-12-11T19:43:11.905Z,12.15
2022-12-11T19:45:39.011Z,11.85
2022-12-11T19:48:06.046Z,11.52
2022-12-11T19:50:35.555Z,11.93
2022-12-11T19:53:02.345Z,18.60
2022-12-11T19:55:29.081Z,13.32
2022-12-11T19:57:56.078Z,15.18
2022-12-11T20:00:23.046Z,11.23
2022-12-11T20:02:49.761Z,11.13
2022-12-11T20:05:16.843Z,11.35
2022-12-11T20:07:46.576Z,11.23
2022-12-11T20:10:13.437Z,14.65
2022-12-11T20:12:40.332Z,17.73
2022-12-11T20:15:07.508Z,20.42
2022-12-11T20:17:34.378Z,20.45
2022-12-11T20:20:01.125Z,32.03
2022-12-11T20:22:27.824Z,37.08
2022-12-11T20:24:54.570Z,38.10
2022-12-11T20:27:21.371Z,22.65
2022-12-11T20:29:48.127Z,23.90
2022-12-11T20:32:14.880Z,12.50
2022-12-11T20:34:41.822Z,25.73
2022-12-11T20:37:08.557Z,16.80
2022-12-11T20:39:36.017Z,20.27
2022-12-11T20:42:04.823Z,27.80
2022-12-11T20:44:32.250Z,17.73
2022-12-11T20:46:59.238Z,19.98
2022-12-11T20:49:26.207Z,22.90
2022-12-11T20:51:53.036Z,20.35
2022-12-11T20:54:19.730Z,18.85
2022-12-11T20:56:46.727Z,22.70
2022-12-11T20:59:13.516Z,16.50
2022-12-11T21:01:41.062Z,14.80
2022-12-11T21:04:08.018Z,17.95
2022-12-11T21:06:37.453Z,20.95
2022-12-11T21:09:07.779Z,21.75
2022-12-11T21:11:34.761Z,14.30
2022-12-11T21:14:01.459Z,13.82
2022-12-11T21:16:28.721Z,12.75
2022-12-11T21:18:57.470Z,12.95
2022-12-11T21:21:24.746Z,14.35
2022-12-11T21:23:51.618Z,15.45
2022-12-11T21:26:18.611Z,14.98
2022-12-11T21:28:45.341Z,14.20
2022-12-11T21:31:14.727Z,14.77
2022-12-11T21:33:41.542Z,14.57
2022-12-11T21:36:11.040Z,13.27
2022-12-11T21:38:38.600Z,14.63
2022-12-11T21:41:13.592Z,14.40
2022-12-11T21:44:00.445Z,14.90
2022-12-11T21:46:28.880Z,14.68
2022-12-11T21:48:55.954Z,14.68
2022-12-11T21:51:36.852Z,13.05
2022-12-11T21:54:06.547Z,14.18
2022-12-11T21:56:33.759Z,14.40
2022-12-11T21:59:01.509Z,14.35
2022-12-11T22:01:33.421Z,14.38
2022-12-11T22:04:00.529Z,15.13
2022-12-11T22:06:27.402Z,13.85
2022-12-11T22:08:54.122Z,15.73
2022-12-11T22:11:24.958Z,15.30
2022-12-11T22:13:51.873Z,13.23
2022-12-11T22:16:18.995Z,12.93
2022-12-11T22:18:46.133Z,12.55
2022-12-11T22:21:13.558Z,13.93
2022-12-11T22:23:41.391Z,13.80
2022-12-11T22:26:11.810Z,12.93
2022-12-11T22:28:38.464Z,15.25
2022-12-11T22:31:05.482Z,12.90
2022-12-11T22:33:32.142Z,13.05
2022-12-11T22:36:00.090Z,14.07
2022-12-11T22:38:27.373Z,13.00
2022-12-11T22:40:54.640Z,11.93
2022-12-11T22:43:21.654Z,14.15
2022-12-11T22:45:48.405Z,13.80
2022-12-11T22:48:15.227Z,14.05
2022-12-11T22:50:42.965Z,13.63
2022-12-11T22:53:10.439Z,13.10
2022-12-11T22:55:40.304Z,12.52
2022-12-11T22:58:07.434Z,12.68
2022-12-11T23:00:34.271Z,12.55
2022-12-11T23:03:01.999Z,12.38
2022-12-11T23:05:29.096Z,11.85
2022-12-11T23:07:55.949Z,11.70
2022-12-11T23:10:22.794Z,10.80
2022-12-11T23:12:49.608Z,11.77
2022-12-11T23:15:16.390Z,11.95
2022-12-11T23:17:46.365Z,11.60
2022-12-11T23:20:13.949Z,11.18
2022-12-11T23:22:41.780Z,11.82
2022-12-11T23:25:12.376Z,11.77
2022-12-11T23:27:39.352Z,12.05
2022-12-11T23:30:06.872Z,11.60
2022-12-11T23:32:33.562Z,12.05
2022-12-11T23:35:00.276Z,12.93
2022-12-11T23:37:26.991Z,11.45
2022-12-11T23:39:53.690Z,11.40
2022-12-11T23:42:20.375Z,11.15
2022-12-11T23:44:47.117Z,13.50
2022-12-11T23:47:13.843Z,11.90
2022-12-11T23:49:40.554Z,12.90
2022-12-11T23:52:07.371Z,11.68
2022-12-11T23:54:34.094Z,11.27
2022-12-11T23:57:00.967Z,11.77
2022-12-11T23:59:27.639Z,11.55
